sensor_id;sensor_type;location;lat;lon;timestamp;P1;durP1;ratioP1;P2;durP2;ratioP2
8964;SDS011;4517;49.020;12.066;2023-03-23T00:01:51;15.60;;;14.30;;
8964;SDS011;4517;49.020;12.066;2023-03-23T00:04:17;15.47;;;14.40;;
8964;SDS011;4517;49.020;12.066;2023-03-23T00:06:43;16.23;;;14.93;;
8964;SDS011;4517;49.020;12.066;2023-03-23T00:09:10;17.37;;;15.97;;
8964;SDS011;4517;49.020;12.066;2023-03-23T00:11:37;15.30;;;14.20;;
8964;SDS011;4517;49.020;12.066;2023-03-23T00:14:04;16.83;;;15.33;;
8964;SDS011;4517;49.020;12.066;2023-03-23T00:16:30;16.33;;;15.03;;
8964;SDS011;4517;49.020;12.066;2023-03-23T00:19:02;15.70;;;14.50;;
8964;SDS011;4517;49.020;12.066;2023-03-23T00:21:31;15.77;;;14.40;;
8964;SDS011;4517;49.020;12.066;2023-03-23T00:24:03;16.60;;;15.30;;
8964;SDS011;4517;49.020;12.066;2023-03-23T00:26:37;15.60;;;14.43;;
8964;SDS011;4517;49.020;12.066;2023-03-23T00:29:07;16.17;;;14.83;;
8964;SDS011;4517;49.020;12.066;2023-03-23T00:31:44;16.50;;;15.20;;
8964;SDS011;4517;49.020;12.066;2023-03-23T00:34:14;16.40;;;14.90;;
8964;SDS011;4517;49.020;12.066;2023-03-23T00:36:44;16.43;;;15.13;;
8964;SDS011;4517;49.020;12.066;2023-03-23T00:39:15;17.00;;;15.60;;
8964;SDS011;4517;49.020;12.066;2023-03-23T00:41:41;15.97;;;14.80;;
8964;SDS011;4517;49.020;12.066;2023-03-23T00:44:11;15.67;;;14.53;;
8964;SDS011;4517;49.020;12.066;2023-03-23T00:46:45;15.80;;;14.60;;
8964;SDS011;4517;49.020;12.066;2023-03-23T00:49:13;15.23;;;13.83;;
8964;SDS011;4517;49.020;12.066;2023-03-23T00:51:41;16.17;;;14.87;;
8964;SDS011;4517;49.020;12.066;2023-03-23T00:54:07;16.40;;;15.10;;
8964;SDS011;4517;49.020;12.066;2023-03-23T00:56:34;16.50;;;15.00;;
8964;SDS011;4517;49.020;12.066;2023-03-23T00:59:00;15.90;;;14.30;;
8964;SDS011;4517;49.020;12.066;2023-03-23T01:01:26;16.07;;;14.77;;
8964;SDS011;4517;49.020;12.066;2023-03-23T01:03:51;16.63;;;15.33;;
8964;SDS011;4517;49.020;12.066;2023-03-23T01:06:25;16.43;;;15.13;;
8964;SDS011;4517;49.020;12.066;2023-03-23T01:08:52;16.60;;;15.40;;
8964;SDS011;4517;49.020;12.066;2023-03-23T01:11:18;15.50;;;14.33;;
8964;SDS011;4517;49.020;12.066;2023-03-23T01:13:44;16.80;;;15.03;;
8964;SDS011;4517;49.020;12.066;2023-03-23T01:16:10;15.93;;;14.60;;
8964;SDS011;4517;49.020;12.066;2023-03-23T01:18:37;16.07;;;14.67;;
8964;SDS011;4517;49.020;12.066;2023-03-23T01:21:08;16.73;;;15.33;;
8964;SDS011;4517;49.020;12.066;2023-03-23T01:23:35;15.97;;;14.77;;
8964;SDS011;4517;49.020;12.066;2023-03-23T01:26:13;16.43;;;15.20;;
8964;SDS011;4517;49.020;12.066;2023-03-23T01:28:44;15.63;;;14.40;;
8964;SDS011;4517;49.020;12.066;2023-03-23T01:31:11;16.10;;;14.90;;
8964;SDS011;4517;49.020;12.066;2023-03-23T01:33:39;16.77;;;15.33;;
8964;SDS011;4517;49.020;12.066;2023-03-23T01:36:06;15.57;;;14.17;;
8964;SDS011;4517;49.020;12.066;2023-03-23T01:38:35;15.87;;;14.70;;
8964;SDS011;4517;49.020;12.066;2023-03-23T01:41:01;15.97;;;14.57;;
8964;SDS011;4517;49.020;12.066;2023-03-23T01:43:27;16.43;;;15.23;;
8964;SDS011;4517;49.020;12.066;2023-03-23T01:45:53;16.13;;;14.83;;
8964;SDS011;4517;49.020;12.066;2023-03-23T01:48:28;16.10;;;15.00;;
8964;SDS011;4517;49.020;12.066;2023-03-23T01:51:12;15.70;;;14.40;;
8964;SDS011;4517;49.020;12.066;2023-03-23T01:53:41;16.67;;;15.27;;
8964;SDS011;4517;49.020;12.066;2023-03-23T01:56:11;18.07;;;15.60;;
8964;SDS011;4517;49.020;12.066;2023-03-23T01:58:38;17.27;;;15.80;;
8964;SDS011;4517;49.020;12.066;2023-03-23T02:01:06;17.43;;;15.43;;
8964;SDS011;4517;49.020;12.066;2023-03-23T02:03:36;17.53;;;15.73;;
8964;SDS011;4517;49.020;12.066;2023-03-23T02:06:04;24.50;;;15.80;;
8964;SDS011;4517;49.020;12.066;2023-03-23T02:08:30;17.80;;;15.97;;
8964;SDS011;4517;49.020;12.066;2023-03-23T02:10:58;18.87;;;15.30;;
8964;SDS011;4517;49.020;12.066;2023-03-23T02:13:24;17.57;;;15.77;;
8964;SDS011;4517;49.020;12.066;2023-03-23T02:18:44;16.97;;;15.40;;
8964;SDS011;4517;49.020;12.066;2023-03-23T02:21:46;17.60;;;16.10;;
8964;SDS011;4517;49.020;12.066;2023-03-23T02:24:30;16.37;;;14.90;;
8964;SDS011;4517;49.020;12.066;2023-03-23T02:27:47;16.07;;;14.77;;
8964;SDS011;4517;49.020;12.066;2023-03-23T02:32:51;16.53;;;14.80;;
8964;SDS011;4517;49.020;12.066;2023-03-23T02:37:59;17.00;;;15.27;;
8964;SDS011;4517;49.020;12.066;2023-03-23T02:40:39;16.97;;;15.13;;
8964;SDS011;4517;49.020;12.066;2023-03-23T02:43:14;16.60;;;15.10;;
8964;SDS011;4517;49.020;12.066;2023-03-23T02:45:46;18.13;;;16.30;;
8964;SDS011;4517;49.020;12.066;2023-03-23T02:48:12;17.37;;;15.57;;
8964;SDS011;4517;49.020;12.066;2023-03-23T02:53:22;16.63;;;15.03;;
8964;SDS011;4517;49.020;12.066;2023-03-23T02:55:49;17.40;;;15.90;;
8964;SDS011;4517;49.020;12.066;2023-03-23T02:58:19;17.47;;;15.77;;
8964;SDS011;4517;49.020;12.066;2023-03-23T03:00:48;17.40;;;15.77;;
8964;SDS011;4517;49.020;12.066;2023-03-23T03:03:19;16.00;;;14.53;;
8964;SDS011;4517;49.020;12.066;2023-03-23T03:08:55;17.77;;;16.00;;
8964;SDS011;4517;49.020;12.066;2023-03-23T03:11:46;17.03;;;15.33;;
8964;SDS011;4517;49.020;12.066;2023-03-23T03:14:19;18.20;;;16.07;;
8964;SDS011;4517;49.020;12.066;2023-03-23T03:17:00;16.03;;;14.80;;
8964;SDS011;4517;49.020;12.066;2023-03-23T03:19:32;17.77;;;16.27;;
8964;SDS011;4517;49.020;12.066;2023-03-23T03:22:02;17.50;;;16.00;;
8964;SDS011;4517;49.020;12.066;2023-03-23T03:24:29;17.33;;;15.83;;
8964;SDS011;4517;49.020;12.066;2023-03-23T03:26:57;20.03;;;18.13;;
8964;SDS011;4517;49.020;12.066;2023-03-23T03:29:32;19.43;;;17.10;;
8964;SDS011;4517;49.020;12.066;2023-03-23T03:32:01;17.53;;;16.00;;
8964;SDS011;4517;49.020;12.066;2023-03-23T03:34:30;17.53;;;15.97;;
8964;SDS011;4517;49.020;12.066;2023-03-23T03:36:57;17.40;;;15.63;;
8964;SDS011;4517;49.020;12.066;2023-03-23T03:39:23;18.17;;;16.50;;
8964;SDS011;4517;49.020;12.066;2023-03-23T03:41:50;17.90;;;16.17;;
8964;SDS011;4517;49.020;12.066;2023-03-23T03:44:15;17.37;;;15.77;;
8964;SDS011;4517;49.020;12.066;2023-03-23T03:46:41;17.30;;;15.70;;
8964;SDS011;4517;49.020;12.066;2023-03-23T03:49:07;16.73;;;15.13;;
8964;SDS011;4517;49.020;12.066;2023-03-23T03:51:35;18.57;;;16.57;;
8964;SDS011;4517;49.020;12.066;2023-03-23T03:54:01;17.10;;;15.53;;
8964;SDS011;4517;49.020;12.066;2023-03-23T03:56:27;16.50;;;15.13;;
8964;SDS011;4517;49.020;12.066;2023-03-23T03:58:53;16.33;;;14.93;;
8964;SDS011;4517;49.020;12.066;2023-03-23T04:01:19;17.33;;;15.87;;
8964;SDS011;4517;49.020;12.066;2023-03-23T04:03:47;18.13;;;15.27;;
8964;SDS011;4517;49.020;12.066;2023-03-23T04:06:14;17.10;;;15.30;;
8964;SDS011;4517;49.020;12.066;2023-03-23T04:08:40;16.30;;;14.80;;
8964;SDS011;4517;49.020;12.066;2023-03-23T04:11:06;16.97;;;15.27;;
8964;SDS011;4517;49.020;12.066;2023-03-23T04:13:37;17.40;;;15.70;;
8964;SDS011;4517;49.020;12.066;2023-03-23T04:16:03;16.60;;;15.00;;
8964;SDS011;4517;49.020;12.066;2023-03-23T04:18:30;17.53;;;15.90;;
8964;SDS011;4517;49.020;12.066;2023-03-23T04:20:57;17.70;;;15.93;;
8964;SDS011;4517;49.020;12.066;2023-03-23T04:23:25;18.20;;;16.37;;
8964;SDS011;4517;49.020;12.066;2023-03-23T04:25:52;17.87;;;16.33;;
8964;SDS011;4517;49.020;12.066;2023-03-23T04:28:22;17.00;;;15.47;;
8964;SDS011;4517;49.020;12.066;2023-03-23T04:30:49;16.90;;;15.50;;
8964;SDS011;4517;49.020;12.066;2023-03-23T04:33:20;16.27;;;14.87;;
8964;SDS011;4517;49.020;12.066;2023-03-23T04:35:50;16.80;;;15.30;;
8964;SDS011;4517;49.020;12.066;2023-03-23T04:38:18;16.13;;;14.77;;
8964;SDS011;4517;49.020;12.066;2023-03-23T04:40:49;17.80;;;15.70;;
8964;SDS011;4517;49.020;12.066;2023-03-23T04:43:19;16.87;;;15.37;;
8964;SDS011;4517;49.020;12.066;2023-03-23T04:45:53;16.70;;;15.30;;
8964;SDS011;4517;49.020;12.066;2023-03-23T04:48:21;16.37;;;14.90;;
8964;SDS011;4517;49.020;12.066;2023-03-23T04:50:48;17.33;;;15.80;;
8964;SDS011;4517;49.020;12.066;2023-03-23T04:53:16;18.00;;;15.87;;
8964;SDS011;4517;49.020;12.066;2023-03-23T04:55:43;18.70;;;16.07;;
8964;SDS011;4517;49.020;12.066;2023-03-23T04:58:09;22.20;;;16.70;;
8964;SDS011;4517;49.020;12.066;2023-03-23T05:00:37;16.70;;;15.10;;
8964;SDS011;4517;49.020;12.066;2023-03-23T05:03:03;18.73;;;16.30;;
8964;SDS011;4517;49.020;12.066;2023-03-23T05:05:29;17.40;;;15.70;;
8964;SDS011;4517;49.020;12.066;2023-03-23T05:07:55;17.13;;;15.67;;
8964;SDS011;4517;49.020;12.066;2023-03-23T05:10:22;20.30;;;16.77;;
8964;SDS011;4517;49.020;12.066;2023-03-23T05:12:48;17.57;;;15.87;;
8964;SDS011;4517;49.020;12.066;2023-03-23T05:15:15;17.90;;;16.40;;
8964;SDS011;4517;49.020;12.066;2023-03-23T05:17:41;17.83;;;16.13;;
8964;SDS011;4517;49.020;12.066;2023-03-23T05:20:11;17.37;;;15.73;;
8964;SDS011;4517;49.020;12.066;2023-03-23T05:22:39;16.70;;;15.17;;
8964;SDS011;4517;49.020;12.066;2023-03-23T05:25:06;17.23;;;15.70;;
8964;SDS011;4517;49.020;12.066;2023-03-23T05:27:36;16.67;;;15.27;;
8964;SDS011;4517;49.020;12.066;2023-03-23T05:30:02;16.43;;;14.93;;
8964;SDS011;4517;49.020;12.066;2023-03-23T05:32:30;16.33;;;15.03;;
8964;SDS011;4517;49.020;12.066;2023-03-23T05:34:56;15.97;;;14.57;;
8964;SDS011;4517;49.020;12.066;2023-03-23T05:37:22;16.50;;;15.20;;
8964;SDS011;4517;49.020;12.066;2023-03-23T05:39:48;16.43;;;14.73;;
8964;SDS011;4517;49.020;12.066;2023-03-23T05:42:14;16.10;;;14.70;;
8964;SDS011;4517;49.020;12.066;2023-03-23T05:44:39;17.73;;;16.00;;
8964;SDS011;4517;49.020;12.066;2023-03-23T05:47:05;17.07;;;15.47;;
8964;SDS011;4517;49.020;12.066;2023-03-23T05:49:30;17.03;;;15.53;;
8964;SDS011;4517;49.020;12.066;2023-03-23T05:51:56;16.83;;;15.53;;
8964;SDS011;4517;49.020;12.066;2023-03-23T05:54:22;16.23;;;14.50;;
8964;SDS011;4517;49.020;12.066;2023-03-23T05:56:47;18.80;;;15.43;;
8964;SDS011;4517;49.020;12.066;2023-03-23T05:59:14;24.10;;;15.87;;
8964;SDS011;4517;49.020;12.066;2023-03-23T06:01:39;17.83;;;15.80;;
8964;SDS011;4517;49.020;12.066;2023-03-23T06:04:05;20.40;;;16.63;;
8964;SDS011;4517;49.020;12.066;2023-03-23T06:06:31;19.53;;;17.27;;
8964;SDS011;4517;49.020;12.066;2023-03-23T06:08:57;19.40;;;17.60;;
8964;SDS011;4517;49.020;12.066;2023-03-23T06:11:23;17.30;;;15.90;;
8964;SDS011;4517;49.020;12.066;2023-03-23T06:13:50;18.37;;;16.57;;
8964;SDS011;4517;49.020;12.066;2023-03-23T06:16:16;19.20;;;17.37;;
8964;SDS011;4517;49.020;12.066;2023-03-23T06:18:42;18.60;;;15.60;;
8964;SDS011;4517;49.020;12.066;2023-03-23T06:21:08;17.70;;;16.10;;
8964;SDS011;4517;49.020;12.066;2023-03-23T06:23:34;16.80;;;15.10;;
8964;SDS011;4517;49.020;12.066;2023-03-23T06:26:01;18.40;;;16.80;;
8964;SDS011;4517;49.020;12.066;2023-03-23T06:28:30;25.27;;;23.37;;
8964;SDS011;4517;49.020;12.066;2023-03-23T06:30:58;23.53;;;21.40;;
8964;SDS011;4517;49.020;12.066;2023-03-23T06:33:31;20.70;;;19.00;;
8964;SDS011;4517;49.020;12.066;2023-03-23T06:36:01;18.50;;;16.60;;
8964;SDS011;4517;49.020;12.066;2023-03-23T06:38:27;21.67;;;20.00;;
8964;SDS011;4517;49.020;12.066;2023-03-23T06:40:53;17.53;;;15.93;;
8964;SDS011;4517;49.020;12.066;2023-03-23T06:43:19;18.33;;;16.33;;
8964;SDS011;4517;49.020;12.066;2023-03-23T06:45:45;17.93;;;16.37;;
8964;SDS011;4517;49.020;12.066;2023-03-23T06:48:11;17.50;;;16.00;;
8964;SDS011;4517;49.020;12.066;2023-03-23T06:50:37;17.47;;;16.00;;
8964;SDS011;4517;49.020;12.066;2023-03-23T06:53:03;17.80;;;16.10;;
8964;SDS011;4517;49.020;12.066;2023-03-23T06:55:28;18.57;;;16.50;;
8964;SDS011;4517;49.020;12.066;2023-03-23T06:57:54;23.17;;;21.20;;
8964;SDS011;4517;49.020;12.066;2023-03-23T07:00:21;17.80;;;16.00;;
8964;SDS011;4517;49.020;12.066;2023-03-23T07:02:47;18.87;;;16.97;;
8964;SDS011;4517;49.020;12.066;2023-03-23T07:05:12;18.60;;;16.90;;
8964;SDS011;4517;49.020;12.066;2023-03-23T07:07:39;19.57;;;17.80;;
8964;SDS011;4517;49.020;12.066;2023-03-23T07:10:06;19.60;;;17.80;;
8964;SDS011;4517;49.020;12.066;2023-03-23T07:12:34;18.97;;;16.47;;
8964;SDS011;4517;49.020;12.066;2023-03-23T07:15:01;19.13;;;17.10;;
8964;SDS011;4517;49.020;12.066;2023-03-23T07:17:28;19.13;;;17.23;;
8964;SDS011;4517;49.020;12.066;2023-03-23T07:19:53;22.33;;;20.63;;
8964;SDS011;4517;49.020;12.066;2023-03-23T07:22:19;19.53;;;17.83;;
8964;SDS011;4517;49.020;12.066;2023-03-23T07:24:45;19.17;;;17.43;;
8964;SDS011;4517;49.020;12.066;2023-03-23T07:27:11;24.17;;;17.23;;
8964;SDS011;4517;49.020;12.066;2023-03-23T07:29:36;19.13;;;17.20;;
8964;SDS011;4517;49.020;12.066;2023-03-23T07:32:03;28.63;;;26.00;;
8964;SDS011;4517;49.020;12.066;2023-03-23T07:34:30;19.90;;;17.90;;
8964;SDS011;4517;49.020;12.066;2023-03-23T07:36:56;19.70;;;17.60;;
8964;SDS011;4517;49.020;12.066;2023-03-23T07:39:22;18.23;;;16.60;;
8964;SDS011;4517;49.020;12.066;2023-03-23T07:41:49;19.57;;;17.77;;
8964;SDS011;4517;49.020;12.066;2023-03-23T07:44:14;21.53;;;17.30;;
8964;SDS011;4517;49.020;12.066;2023-03-23T07:46:40;19.33;;;17.37;;
8964;SDS011;4517;49.020;12.066;2023-03-23T07:49:07;18.83;;;17.13;;
8964;SDS011;4517;49.020;12.066;2023-03-23T07:51:33;19.27;;;17.67;;
8964;SDS011;4517;49.020;12.066;2023-03-23T07:53:59;20.27;;;18.37;;
8964;SDS011;4517;49.020;12.066;2023-03-23T07:56:25;18.90;;;17.30;;
8964;SDS011;4517;49.020;12.066;2023-03-23T07:58:51;18.60;;;16.73;;
8964;SDS011;4517;49.020;12.066;2023-03-23T08:01:16;19.03;;;17.30;;
8964;SDS011;4517;49.020;12.066;2023-03-23T08:03:43;20.67;;;16.83;;
8964;SDS011;4517;49.020;12.066;2023-03-23T08:06:12;21.00;;;19.40;;
8964;SDS011;4517;49.020;12.066;2023-03-23T08:08:38;18.50;;;16.80;;
8964;SDS011;4517;49.020;12.066;2023-03-23T08:11:05;20.47;;;17.80;;
8964;SDS011;4517;49.020;12.066;2023-03-23T08:13:31;19.60;;;17.53;;
8964;SDS011;4517;49.020;12.066;2023-03-23T08:15:58;19.77;;;17.93;;
8964;SDS011;4517;49.020;12.066;2023-03-23T08:18:25;19.10;;;17.40;;
8964;SDS011;4517;49.020;12.066;2023-03-23T08:20:51;19.43;;;17.53;;
8964;SDS011;4517;49.020;12.066;2023-03-23T08:23:18;18.80;;;17.30;;
8964;SDS011;4517;49.020;12.066;2023-03-23T08:25:43;18.70;;;17.17;;
8964;SDS011;4517;49.020;12.066;2023-03-23T08:28:09;19.10;;;17.60;;
8964;SDS011;4517;49.020;12.066;2023-03-23T08:30:34;19.30;;;17.50;;
8964;SDS011;4517;49.020;12.066;2023-03-23T08:33:02;18.17;;;16.70;;
8964;SDS011;4517;49.020;12.066;2023-03-23T08:35:29;19.43;;;17.07;;
8964;SDS011;4517;49.020;12.066;2023-03-23T08:37:55;18.33;;;16.90;;
8964;SDS011;4517;49.020;12.066;2023-03-23T08:40:23;19.23;;;17.47;;
8964;SDS011;4517;49.020;12.066;2023-03-23T08:42:49;20.00;;;17.93;;
8964;SDS011;4517;49.020;12.066;2023-03-23T08:45:19;18.83;;;17.10;;
8964;SDS011;4517;49.020;12.066;2023-03-23T08:47:47;19.90;;;17.97;;
8964;SDS011;4517;49.020;12.066;2023-03-23T08:50:17;19.30;;;17.53;;
8964;SDS011;4517;49.020;12.066;2023-03-23T08:52:48;19.77;;;18.00;;
8964;SDS011;4517;49.020;12.066;2023-03-23T08:55:15;20.20;;;18.20;;
8964;SDS011;4517;49.020;12.066;2023-03-23T08:57:42;18.60;;;17.30;;
8964;SDS011;4517;49.020;12.066;2023-03-23T09:00:10;18.97;;;17.47;;
8964;SDS011;4517;49.020;12.066;2023-03-23T09:02:41;18.10;;;16.70;;
8964;SDS011;4517;49.020;12.066;2023-03-23T09:05:07;18.60;;;17.00;;
8964;SDS011;4517;49.020;12.066;2023-03-23T09:07:36;18.87;;;16.90;;
8964;SDS011;4517;49.020;12.066;2023-03-23T09:10:06;18.37;;;16.90;;
8964;SDS011;4517;49.020;12.066;2023-03-23T09:12:33;19.97;;;18.23;;
8964;SDS011;4517;49.020;12.066;2023-03-23T09:14:58;17.60;;;16.17;;
8964;SDS011;4517;49.020;12.066;2023-03-23T09:17:24;18.10;;;16.50;;
8964;SDS011;4517;49.020;12.066;2023-03-23T09:19:50;18.77;;;17.13;;
8964;SDS011;4517;49.020;12.066;2023-03-23T09:22:15;19.10;;;17.10;;
8964;SDS011;4517;49.020;12.066;2023-03-23T09:24:45;18.33;;;16.80;;
8964;SDS011;4517;49.020;12.066;2023-03-23T09:27:11;18.70;;;17.20;;
8964;SDS011;4517;49.020;12.066;2023-03-23T09:29:37;18.10;;;16.60;;
8964;SDS011;4517;49.020;12.066;2023-03-23T09:32:03;19.13;;;17.30;;
8964;SDS011;4517;49.020;12.066;2023-03-23T09:34:30;19.20;;;17.50;;
8964;SDS011;4517;49.020;12.066;2023-03-23T09:36:55;19.13;;;17.40;;
8964;SDS011;4517;49.020;12.066;2023-03-23T09:39:21;18.93;;;17.53;;
8964;SDS011;4517;49.020;12.066;2023-03-23T09:41:59;20.57;;;18.20;;
8964;SDS011;4517;49.020;12.066;2023-03-23T09:47:38;20.80;;;18.70;;
8964;SDS011;4517;49.020;12.066;2023-03-23T09:50:14;19.80;;;18.00;;
8964;SDS011;4517;49.020;12.066;2023-03-23T09:52:48;19.90;;;18.20;;
8964;SDS011;4517;49.020;12.066;2023-03-23T09:55:21;20.17;;;18.07;;
8964;SDS011;4517;49.020;12.066;2023-03-23T09:57:58;18.73;;;17.03;;
8964;SDS011;4517;49.020;12.066;2023-03-23T10:00:43;18.80;;;17.30;;
8964;SDS011;4517;49.020;12.066;2023-03-23T10:03:20;24.40;;;22.10;;
8964;SDS011;4517;49.020;12.066;2023-03-23T10:05:51;19.37;;;17.50;;
8964;SDS011;4517;49.020;12.066;2023-03-23T10:08:19;23.50;;;18.20;;
8964;SDS011;4517;49.020;12.066;2023-03-23T10:11:06;20.07;;;18.27;;
8964;SDS011;4517;49.020;12.066;2023-03-23T10:16:20;19.67;;;18.07;;
8964;SDS011;4517;49.020;12.066;2023-03-23T10:21:40;20.67;;;18.60;;
8964;SDS011;4517;49.020;12.066;2023-03-23T10:24:09;21.23;;;18.23;;
8964;SDS011;4517;49.020;12.066;2023-03-23T10:29:15;21.43;;;19.10;;
8964;SDS011;4517;49.020;12.066;2023-03-23T10:32:17;28.33;;;19.87;;
8964;SDS011;4517;49.020;12.066;2023-03-23T10:34:52;20.97;;;18.93;;
8964;SDS011;4517;49.020;12.066;2023-03-23T10:37:28;21.10;;;19.20;;
8964;SDS011;4517;49.020;12.066;2023-03-23T10:39:59;20.90;;;18.80;;
8964;SDS011;4517;49.020;12.066;2023-03-23T10:42:28;20.73;;;18.20;;
8964;SDS011;4517;49.020;12.066;2023-03-23T10:45:23;20.73;;;18.67;;
8964;SDS011;4517;49.020;12.066;2023-03-23T10:48:16;20.60;;;18.50;;
8964;SDS011;4517;49.020;12.066;2023-03-23T10:51:10;22.73;;;18.63;;
8964;SDS011;4517;49.020;12.066;2023-03-23T10:54:00;25.47;;;23.37;;
8964;SDS011;4517;49.020;12.066;2023-03-23T10:56:27;20.37;;;18.57;;
8964;SDS011;4517;49.020;12.066;2023-03-23T10:58:58;20.33;;;18.43;;
8964;SDS011;4517;49.020;12.066;2023-03-23T11:01:29;20.17;;;18.13;;
8964;SDS011;4517;49.020;12.066;2023-03-23T11:03:56;18.50;;;16.90;;
8964;SDS011;4517;49.020;12.066;2023-03-23T11:06:26;16.97;;;15.20;;
8964;SDS011;4517;49.020;12.066;2023-03-23T11:08:55;17.10;;;15.70;;
8964;SDS011;4517;49.020;12.066;2023-03-23T11:13:58;16.83;;;15.60;;
8964;SDS011;4517;49.020;12.066;2023-03-23T11:16:51;16.40;;;15.07;;
8964;SDS011;4517;49.020;12.066;2023-03-23T11:19:40;16.37;;;15.00;;
8964;SDS011;4517;49.020;12.066;2023-03-23T11:22:07;15.80;;;14.67;;
8964;SDS011;4517;49.020;12.066;2023-03-23T11:24:34;16.10;;;14.70;;
8964;SDS011;4517;49.020;12.066;2023-03-23T11:27:08;15.80;;;14.60;;
8964;SDS011;4517;49.020;12.066;2023-03-23T11:29:35;16.00;;;14.70;;
8964;SDS011;4517;49.020;12.066;2023-03-23T11:32:14;14.63;;;13.67;;
8964;SDS011;4517;49.020;12.066;2023-03-23T11:34:42;15.50;;;14.30;;
8964;SDS011;4517;49.020;12.066;2023-03-23T11:37:14;14.80;;;13.90;;
8964;SDS011;4517;49.020;12.066;2023-03-23T11:42:26;15.10;;;14.10;;
8964;SDS011;4517;49.020;12.066;2023-03-23T11:45:14;14.97;;;13.93;;
8964;SDS011;4517;49.020;12.066;2023-03-23T11:50:49;15.60;;;14.60;;
8964;SDS011;4517;49.020;12.066;2023-03-23T11:56:23;14.30;;;13.30;;
8964;SDS011;4517;49.020;12.066;2023-03-23T11:58:55;14.40;;;13.53;;
8964;SDS011;4517;49.020;12.066;2023-03-23T12:04:29;13.63;;;12.73;;
8964;SDS011;4517;49.020;12.066;2023-03-23T12:07:21;15.30;;;14.30;;
8964;SDS011;4517;49.020;12.066;2023-03-23T12:20:25;14.40;;;13.50;;
8964;SDS011;4517;49.020;12.066;2023-03-23T12:23:20;14.80;;;13.97;;
8964;SDS011;4517;49.020;12.066;2023-03-23T12:31:11;14.80;;;13.90;;
8964;SDS011;4517;49.020;12.066;2023-03-23T12:33:45;14.07;;;13.17;;
8964;SDS011;4517;49.020;12.066;2023-03-23T12:44:09;14.73;;;13.83;;
8964;SDS011;4517;49.020;12.066;2023-03-23T12:46:48;14.00;;;13.20;;
8964;SDS011;4517;49.020;12.066;2023-03-23T12:49:43;14.27;;;13.43;;
8964;SDS011;4517;49.020;12.066;2023-03-23T12:52:14;14.90;;;13.80;;
8964;SDS011;4517;49.020;12.066;2023-03-23T12:57:27;14.93;;;13.90;;
8964;SDS011;4517;49.020;12.066;2023-03-23T13:00:56;14.47;;;13.57;;
8964;SDS011;4517;49.020;12.066;2023-03-23T13:03:33;15.53;;;14.43;;
8964;SDS011;4517;49.020;12.066;2023-03-23T13:08:39;15.47;;;14.27;;
8964;SDS011;4517;49.020;12.066;2023-03-23T13:11:13;15.43;;;14.33;;
8964;SDS011;4517;49.020;12.066;2023-03-23T13:13:49;14.27;;;13.47;;
8964;SDS011;4517;49.020;12.066;2023-03-23T13:16:20;14.63;;;13.53;;
8964;SDS011;4517;49.020;12.066;2023-03-23T13:19:18;15.20;;;14.20;;
8964;SDS011;4517;49.020;12.066;2023-03-23T13:22:11;15.00;;;14.10;;
8964;SDS011;4517;49.020;12.066;2023-03-23T13:24:54;14.87;;;13.87;;
8964;SDS011;4517;49.020;12.066;2023-03-23T13:27:26;15.43;;;14.53;;
8964;SDS011;4517;49.020;12.066;2023-03-23T13:29:56;15.93;;;14.93;;
8964;SDS011;4517;49.020;12.066;2023-03-23T13:32:29;15.93;;;14.87;;
8964;SDS011;4517;49.020;12.066;2023-03-23T13:35:00;15.77;;;14.67;;
8964;SDS011;4517;49.020;12.066;2023-03-23T13:37:28;17.27;;;16.07;;
8964;SDS011;4517;49.020;12.066;2023-03-23T13:40:15;15.60;;;14.40;;
8964;SDS011;4517;49.020;12.066;2023-03-23T13:42:50;14.53;;;13.63;;
8964;SDS011;4517;49.020;12.066;2023-03-23T13:45:22;15.87;;;14.23;;
8964;SDS011;4517;49.020;12.066;2023-03-23T13:53:31;14.20;;;13.10;;
8964;SDS011;4517;49.020;12.066;2023-03-23T13:56:16;14.50;;;13.57;;
8964;SDS011;4517;49.020;12.066;2023-03-23T13:58:49;14.20;;;13.30;;
8964;SDS011;4517;49.020;12.066;2023-03-23T14:01:32;15.63;;;14.63;;
8964;SDS011;4517;49.020;12.066;2023-03-23T14:04:03;15.47;;;14.30;;
8964;SDS011;4517;49.020;12.066;2023-03-23T14:06:34;14.37;;;13.57;;
8964;SDS011;4517;49.020;12.066;2023-03-23T14:09:22;15.57;;;14.40;;
8964;SDS011;4517;49.020;12.066;2023-03-23T14:11:56;15.37;;;14.47;;
8964;SDS011;4517;49.020;12.066;2023-03-23T14:14:33;14.90;;;14.00;;
8964;SDS011;4517;49.020;12.066;2023-03-23T14:17:26;14.50;;;13.70;;
8964;SDS011;4517;49.020;12.066;2023-03-23T14:19:54;14.90;;;14.00;;
8964;SDS011;4517;49.020;12.066;2023-03-23T14:22:25;13.10;;;12.37;;
8964;SDS011;4517;49.020;12.066;2023-03-23T14:25:00;14.20;;;13.30;;
8964;SDS011;4517;49.020;12.066;2023-03-23T14:27:38;14.90;;;13.63;;
8964;SDS011;4517;49.020;12.066;2023-03-23T14:30:05;13.70;;;12.90;;
8964;SDS011;4517;49.020;12.066;2023-03-23T14:32:32;14.67;;;13.77;;
8964;SDS011;4517;49.020;12.066;2023-03-23T14:34:59;13.83;;;12.63;;
8964;SDS011;4517;49.020;12.066;2023-03-23T14:37:30;15.00;;;14.10;;
8964;SDS011;4517;49.020;12.066;2023-03-23T14:39:57;14.60;;;13.60;;
8964;SDS011;4517;49.020;12.066;2023-03-23T14:42:33;14.60;;;13.70;;
8964;SDS011;4517;49.020;12.066;2023-03-23T14:45:01;12.47;;;11.77;;
8964;SDS011;4517;49.020;12.066;2023-03-23T14:47:30;13.47;;;12.77;;
8964;SDS011;4517;49.020;12.066;2023-03-23T14:50:01;14.47;;;13.57;;
8964;SDS011;4517;49.020;12.066;2023-03-23T14:52:36;14.77;;;13.70;;
8964;SDS011;4517;49.020;12.066;2023-03-23T14:55:21;15.03;;;14.03;;
8964;SDS011;4517;49.020;12.066;2023-03-23T14:57:48;15.40;;;14.50;;
8964;SDS011;4517;49.020;12.066;2023-03-23T15:00:15;28.03;;;26.37;;
8964;SDS011;4517;49.020;12.066;2023-03-23T15:02:51;14.57;;;13.57;;
8964;SDS011;4517;49.020;12.066;2023-03-23T15:05:21;15.40;;;14.50;;
8964;SDS011;4517;49.020;12.066;2023-03-23T15:08:02;15.47;;;14.33;;
8964;SDS011;4517;49.020;12.066;2023-03-23T15:10:30;14.30;;;13.50;;
8964;SDS011;4517;49.020;12.066;2023-03-23T15:12:56;14.57;;;13.57;;
8964;SDS011;4517;49.020;12.066;2023-03-23T15:17:51;16.07;;;14.87;;
8964;SDS011;4517;49.020;12.066;2023-03-23T15:20:19;14.23;;;13.13;;
8964;SDS011;4517;49.020;12.066;2023-03-23T15:22:51;14.37;;;13.57;;
8964;SDS011;4517;49.020;12.066;2023-03-23T15:27:55;14.40;;;13.60;;
8964;SDS011;4517;49.020;12.066;2023-03-23T15:32:47;15.47;;;14.23;;
8964;SDS011;4517;49.020;12.066;2023-03-23T15:35:20;15.07;;;14.07;;
8964;SDS011;4517;49.020;12.066;2023-03-23T15:37:49;15.07;;;13.97;;
8964;SDS011;4517;49.020;12.066;2023-03-23T15:40:18;14.53;;;13.23;;
8964;SDS011;4517;49.020;12.066;2023-03-23T15:42:46;14.97;;;14.03;;
8964;SDS011;4517;49.020;12.066;2023-03-23T15:47:47;15.00;;;14.10;;
8964;SDS011;4517;49.020;12.066;2023-03-23T15:52:42;16.27;;;14.87;;
8964;SDS011;4517;49.020;12.066;2023-03-23T15:55:18;13.80;;;13.00;;
8964;SDS011;4517;49.020;12.066;2023-03-23T15:57:54;13.70;;;12.70;;
8964;SDS011;4517;49.020;12.066;2023-03-23T16:00:21;13.93;;;12.80;;
8964;SDS011;4517;49.020;12.066;2023-03-23T16:02:52;17.63;;;15.77;;
8964;SDS011;4517;49.020;12.066;2023-03-23T16:05:20;13.80;;;12.90;;
8964;SDS011;4517;49.020;12.066;2023-03-23T16:07:45;14.00;;;13.10;;
8964;SDS011;4517;49.020;12.066;2023-03-23T16:10:18;14.10;;;12.90;;
8964;SDS011;4517;49.020;12.066;2023-03-23T16:12:45;13.23;;;12.43;;
8964;SDS011;4517;49.020;12.066;2023-03-23T16:15:12;16.30;;;14.57;;
8964;SDS011;4517;49.020;12.066;2023-03-23T16:17:37;15.20;;;14.03;;
8964;SDS011;4517;49.020;12.066;2023-03-23T16:20:16;18.80;;;17.53;;